createdAt,value
2022-12-14T00:01:18.177Z,-1.90
2022-12-14T00:03:45.315Z,-1.80
2022-12-14T00:06:25.798Z,-1.90
2022-12-14T00:08:55.528Z,-1.90
2022-12-14T00:11:22.419Z,-1.80
2022-12-14T00:13:59.494Z,-1.90
2022-12-14T00:16:27.869Z,-2.00
2022-12-14T00:18:55.514Z,-2.00
2022-12-14T00:21:22.248Z,-1.90
2022-12-14T00:23:50.157Z,-1.90
2022-12-14T00:26:17.959Z,-2.00
2022-12-14T00:28:45.559Z,-2.10
2022-12-14T00:31:12.284Z,-2.10
2022-12-14T00:33:39.210Z,-2.10
2022-12-14T00:36:06.940Z,-2.00
2022-12-14T00:38:33.684Z,-2.10
2022-12-14T00:41:00.435Z,-2.10
2022-12-14T00:43:27.165Z,-2.10
2022-12-14T00:45:54.010Z,-2.10
2022-12-14T00:48:21.300Z,-2.10
2022-12-14T00:50:48.728Z,-2.10
2022-12-14T00:53:16.108Z,-2.20
2022-12-14T00:55:43.892Z,-2.20
2022-12-14T00:58:17.134Z,-2.20
2022-12-14T01:00:46.445Z,-2.20
2022-12-14T01:03:13.153Z,-2.20
2022-12-14T01:05:40.748Z,-2.20
2022-12-14T01:08:07.395Z,-2.20
2022-12-14T01:10:34.102Z,-2.20
2022-12-14T01:13:00.768Z,-2.20
2022-12-14T01:15:27.417Z,-2.20
2022-12-14T01:17:54.061Z,-2.20
2022-12-14T01:20:20.765Z,-2.20
2022-12-14T01:22:47.523Z,-2.20
2022-12-14T01:25:14.176Z,-2.20
2022-12-14T01:27:40.812Z,-2.20
2022-12-14T01:30:07.836Z,-2.20
2022-12-14T01:32:34.735Z,-2.20
2022-12-14T01:35:01.426Z,-2.20
2022-12-14T01:37:28.743Z,-2.20
2022-12-14T01:39:55.464Z,-2.10
2022-12-14T01:42:22.348Z,-2.10
2022-12-14T01:44:53.006Z,-2.10
2022-12-14T01:47:38.219Z,-2.10
2022-12-14T01:50:21.756Z,-2.10
2022-12-14T01:52:48.641Z,-2.10
2022-12-14T01:55:29.392Z,-2.10
2022-12-14T01:58:09.902Z,-2.10
2022-12-14T02:00:36.796Z,-2.10
2022-12-14T02:03:31.321Z,-2.10
2022-12-14T02:06:13.579Z,-2.20
2022-12-14T02:08:40.287Z,-2.10
2022-12-14T02:11:07.378Z,-2.20
2022-12-14T02:13:36.757Z,-2.20
2022-12-14T02:16:03.412Z,-2.10
2022-12-14T02:18:31.139Z,-2.10
2022-12-14T02:21:21.704Z,-2.10
2022-12-14T02:24:26.180Z,-2.20
2022-12-14T02:27:08.226Z,-2.10
2022-12-14T02:30:12.903Z,-2.10
2022-12-14T02:32:49.430Z,-2.00
2022-12-14T02:35:23.405Z,-2.10
2022-12-14T02:38:06.961Z,-2.10
2022-12-14T02:40:44.924Z,-2.10
2022-12-14T02:43:19.103Z,-2.20
2022-12-14T02:46:23.696Z,-2.10
2022-12-14T02:49:06.351Z,-2.10
2022-12-14T02:51:41.757Z,-2.10
2022-12-14T02:54:14.321Z,-2.10
2022-12-14T02:56:45.242Z,-2.00
2022-12-14T02:59:11.929Z,-2.00
2022-12-14T03:01:38.888Z,-2.10
2022-12-14T03:04:06.604Z,-2.10
2022-12-14T03:06:33.302Z,-2.20
2022-12-14T03:09:02.739Z,-2.10
2022-12-14T03:11:41.207Z,-2.20
2022-12-14T03:14:20.739Z,-2.10
2022-12-14T03:16:49.252Z,-2.10
2022-12-14T03:19:20.530Z,-2.00
2022-12-14T03:21:49.477Z,-2.00
2022-12-14T03:24:21.149Z,-2.00
2022-12-14T03:26:52.647Z,-2.00
2022-12-14T03:29:22.678Z,-2.00
2022-12-14T03:31:59.665Z,-2.10
2022-12-14T03:34:49.881Z,-2.10
2022-12-14T03:37:20.323Z,-2.00
2022-12-14T03:39:47.035Z,-2.00
2022-12-14T03:42:58.018Z,-2.00
2022-12-14T03:45:40.398Z,-2.10
2022-12-14T03:48:37.996Z,-2.10
2022-12-14T03:51:26.135Z,-2.10
2022-12-14T03:54:09.424Z,-2.00
2022-12-14T03:56:55.063Z,-2.00
2022-12-14T03:59:43.054Z,-2.00
2022-12-14T04:02:16.498Z,-2.00
2022-12-14T04:04:47.510Z,-2.00
2022-12-14T04:07:17.951Z,-1.90
2022-12-14T04:10:28.109Z,-1.90
2022-12-14T04:13:17.661Z,-1.90
2022-12-14T04:16:02.857Z,-1.80
2022-12-14T04:18:53.185Z,-1.80
2022-12-14T04:21:36.503Z,-1.80
2022-12-14T04:24:30.742Z,-1.80
2022-12-14T04:27:06.103Z,-1.80
2022-12-14T04:29:51.833Z,-1.80
2022-12-14T04:32:22.066Z,-1.90
2022-12-14T04:34:51.968Z,-2.00
2022-12-14T04:37:20.041Z,-2.00
2022-12-14T04:39:55.969Z,-2.10
2022-12-14T04:42:25.959Z,-2.10
2022-12-14T04:44:54.238Z,-2.00
2022-12-14T04:47:20.928Z,-1.90
2022-12-14T04:49:55.486Z,-1.90
2022-12-14T04:52:27.290Z,-1.90
2022-12-14T04:55:12.757Z,-2.00
2022-12-14T04:57:39.401Z,-1.90
2022-12-14T05:00:06.662Z,-1.90
2022-12-14T05:02:54.888Z,-1.90
2022-12-14T05:05:57.880Z,-1.90
2022-12-14T05:08:37.822Z,-1.90
2022-12-14T05:11:52.752Z,-1.90
2022-12-14T05:14:40.704Z,-2.00
2022-12-14T05:17:09.267Z,-1.90
2022-12-14T05:19:36.696Z,-1.90
2022-12-14T05:22:07.253Z,-1.90
2022-12-14T05:24:34.011Z,-1.90
2022-12-14T05:27:00.717Z,-1.90
2022-12-14T05:29:27.437Z,-1.90
2022-12-14T05:32:06.304Z,-1.80
2022-12-14T05:34:32.969Z,-1.80
2022-12-14T05:36:59.671Z,-1.80
2022-12-14T05:39:36.763Z,-1.90
2022-12-14T05:42:03.511Z,-1.80
2022-12-14T05:44:30.174Z,-1.90
2022-12-14T05:46:56.851Z,-1.90
2022-12-14T05:49:23.494Z,-1.80
2022-12-14T05:51:50.187Z,-1.80
2022-12-14T05:54:16.939Z,-1.80
2022-12-14T05:56:43.583Z,-1.80
2022-12-14T05:59:15.342Z,-1.80
2022-12-14T06:01:43.150Z,-1.80
2022-12-14T06:04:13.481Z,-1.80
2022-12-14T06:06:40.238Z,-1.90
2022-12-14T06:09:07.514Z,-1.90
2022-12-14T06:11:36.524Z,-1.90
2022-12-14T06:14:03.190Z,-1.80
2022-12-14T06:16:29.930Z,-1.80
2022-12-14T06:18:58.587Z,-1.80
2022-12-14T06:21:32.993Z,-1.80
2022-12-14T06:23:59.735Z,-1.80
2022-12-14T06:26:27.003Z,-1.80
2022-12-14T06:28:53.809Z,-1.80
2022-12-14T06:31:22.530Z,-1.70
2022-12-14T06:33:49.332Z,-1.70
2022-12-14T06:36:17.647Z,-1.70
2022-12-14T06:38:44.497Z,-1.70
2022-12-14T06:41:12.283Z,-1.80
2022-12-14T06:43:39.091Z,-1.70
2022-12-14T06:46:14.800Z,-1.80
2022-12-14T06:48:42.499Z,-1.80
2022-12-14T06:51:09.174Z,-1.80
2022-12-14T06:53:35.992Z,-1.80
2022-12-14T06:56:13.361Z,-1.80
2022-12-14T06:58:40.235Z,-1.70
2022-12-14T07:01:14.893Z,-1.80
2022-12-14T07:03:42.433Z,-1.80
2022-12-14T07:06:09.326Z,-1.80
2022-12-14T07:08:36.999Z,-1.70
2022-12-14T07:11:10.115Z,-1.80
2022-12-14T07:13:37.000Z,-1.80
2022-12-14T07:16:04.992Z,-1.80
2022-12-14T07:18:32.019Z,-1.80
2022-12-14T07:20:59.256Z,-1.80
2022-12-14T07:23:28.232Z,-1.80
2022-12-14T07:26:03.762Z,-1.70
2022-12-14T07:28:30.541Z,-1.70
2022-12-14T07:30:57.782Z,-1.70
2022-12-14T07:33:24.718Z,-1.70
2022-12-14T07:35:51.642Z,-1.70
2022-12-14T07:38:18.599Z,-1.70
2022-12-14T07:40:45.310Z,-1.70
2022-12-14T07:43:12.016Z,-1.70
2022-12-14T07:45:38.759Z,-1.70
2022-12-14T07:48:07.084Z,-1.60
2022-12-14T07:50:33.740Z,-1.60
2022-12-14T07:53:00.397Z,-1.60
2022-12-14T07:55:27.075Z,-1.60
2022-12-14T07:57:53.764Z,-1.70
2022-12-14T08:00:20.822Z,-1.70
2022-12-14T08:02:47.535Z,-1.70
2022-12-14T08:05:14.209Z,-1.70
2022-12-14T08:07:40.932Z,-1.60
2022-12-14T08:10:07.870Z,-1.60
2022-12-14T08:12:34.516Z,-1.60
2022-12-14T08:15:01.223Z,-1.60
2022-12-14T08:17:27.904Z,-1.60
2022-12-14T08:19:54.605Z,-1.60
2022-12-14T08:22:21.281Z,-1.70
2022-12-14T08:24:49.389Z,-1.60
2022-12-14T08:27:16.556Z,-1.60
2022-12-14T08:29:43.312Z,-1.50
2022-12-14T08:32:10.367Z,-1.70
2022-12-14T08:34:37.024Z,-1.50
2022-12-14T08:37:03.675Z,-1.50
2022-12-14T08:39:30.339Z,-1.40
2022-12-14T08:41:57.122Z,-1.60
2022-12-14T08:44:23.826Z,-1.50
2022-12-14T08:46:50.506Z,-1.60
2022-12-14T08:49:17.252Z,-1.60
2022-12-14T08:51:43.905Z,-1.60
2022-12-14T08:54:11.141Z,-1.50
2022-12-14T08:56:37.840Z,-1.50
2022-12-14T08:59:04.510Z,-1.50
2022-12-14T09:01:34.127Z,-1.50
2022-12-14T09:04:01.813Z,-1.50
2022-12-14T09:06:28.449Z,-1.40
2022-12-14T09:08:55.393Z,-1.40
2022-12-14T09:11:22.223Z,-1.40
2022-12-14T09:13:49.102Z,-1.30
2022-12-14T09:16:19.524Z,-1.30
2022-12-14T09:18:46.597Z,-1.30
2022-12-14T09:21:13.334Z,-1.30
2022-12-14T09:23:40.134Z,-1.20
2022-12-14T09:26:14.727Z,-1.20
2022-12-14T09:28:42.045Z,-1.20
2022-12-14T09:31:11.541Z,-1.20
2022-12-14T09:33:39.105Z,-1.10
2022-12-14T09:36:12.653Z,-1.10
2022-12-14T09:38:39.532Z,-1.10
2022-12-14T09:41:13.741Z,-1.10
2022-12-14T09:43:46.374Z,-1.10
2022-12-14T09:46:27.079Z,-1.10
2022-12-14T09:48:54.492Z,-1.00
2022-12-14T09:51:21.972Z,-1.00
2022-12-14T09:53:50.609Z,-1.00
2022-12-14T09:56:18.257Z,-1.00
2022-12-14T09:58:51.978Z,-0.90
2022-12-14T10:01:30.652Z,-0.90
2022-12-14T10:04:31.054Z,-0.90
2022-12-14T10:07:19.220Z,-0.80
2022-12-14T10:10:03.415Z,-0.90
2022-12-14T10:12:35.615Z,-0.80
2022-12-14T10:15:08.837Z,-0.80
2022-12-14T10:18:00.647Z,-0.80
2022-12-14T10:20:33.030Z,-0.70
2022-12-14T10:22:59.680Z,-0.80
2022-12-14T10:25:31.558Z,-0.80
2022-12-14T10:28:15.491Z,-0.70
2022-12-14T10:30:42.580Z,-0.60
2022-12-14T10:33:29.420Z,-0.70
2022-12-14T10:36:03.280Z,-0.70
2022-12-14T10:38:58.794Z,-0.60
2022-12-14T10:41:53.138Z,-0.60
2022-12-14T10:45:04.232Z,-0.50
2022-12-14T10:47:44.699Z,-0.50
2022-12-14T10:50:29.913Z,-0.50
2022-12-14T10:52:56.639Z,-0.60
2022-12-14T10:55:28.102Z,-0.50
2022-12-14T10:57:55.589Z,-0.60
2022-12-14T11:00:23.471Z,-0.50
2022-12-14T11:02:54.902Z,-0.40
2022-12-14T11:05:37.690Z,-0.40
2022-12-14T11:08:07.141Z,-0.30
2022-12-14T11:10:35.948Z,-0.20
2022-12-14T11:13:19.212Z,-0.30
2022-12-14T11:15:50.834Z,-0.20
2022-12-14T11:18:17.716Z,-0.20
2022-12-14T11:20:49.410Z,-0.10
2022-12-14T11:23:49.013Z,-0.10
2022-12-14T11:29:30.383Z,0.00
2022-12-14T11:31:57.018Z,0.00
2022-12-14T11:34:29.715Z,0.10
2022-12-14T11:36:56.413Z,0.00
2022-12-14T11:39:24.681Z,0.00
2022-12-14T11:41:58.343Z,-0.10
2022-12-14T11:44:26.503Z,0.00
2022-12-14T11:46:59.234Z,0.00
2022-12-14T11:49:28.825Z,0.00
2022-12-14T11:51:55.443Z,0.00
2022-12-14T11:54:28.188Z,-0.10
2022-12-14T11:57:13.724Z,0.00
2022-12-14T11:59:54.901Z,0.10
2022-12-14T12:02:30.076Z,0.10
2022-12-14T12:05:11.331Z,0.10
2022-12-14T12:07:40.334Z,0.00
2022-12-14T12:10:19.233Z,0.10
2022-12-14T12:12:54.038Z,0.20
2022-12-14T12:15:24.055Z,0.20
2022-12-14T12:17:53.500Z,0.20
2022-12-14T12:20:31.941Z,0.10
2022-12-14T12:23:07.796Z,0.10
2022-12-14T12:25:37.371Z,0.10
2022-12-14T12:28:14.922Z,0.10
2022-12-14T12:30:43.240Z,0.20
2022-12-14T12:33:20.721Z,0.20
2022-12-14T12:35:52.744Z,0.30
2022-12-14T12:38:57.884Z,0.40
2022-12-14T12:41:26.219Z,0.40
2022-12-14T12:44:25.410Z,0.50
2022-12-14T12:47:35.800Z,0.50
2022-12-14T12:50:03.647Z,0.40
2022-12-14T12:52:34.008Z,0.40
2022-12-14T12:55:03.280Z,0.30
2022-12-14T12:57:33.604Z,0.40
2022-12-14T13:00:00.326Z,0.40
2022-12-14T13:02:30.116Z,0.40
2022-12-14T13:04:57.042Z,0.50
2022-12-14T13:07:43.569Z,0.50
2022-12-14T13:10:42.042Z,0.50
2022-12-14T13:13:26.764Z,0.50
2022-12-14T13:15:55.623Z,0.50
2022-12-14T13:19:08.821Z,0.50
2022-12-14T13:21:32.515Z,0.40
2022-12-14T13:23:59.352Z,0.50
2022-12-14T13:27:05.764Z,0.50
2022-12-14T13:29:35.182Z,0.50
2022-12-14T13:32:32.339Z,0.50
2022-12-14T13:35:37.467Z,0.40
2022-12-14T13:38:31.135Z,0.40
2022-12-14T13:41:28.690Z,0.40
2022-12-14T13:44:43.996Z,0.40
2022-12-14T13:47:16.324Z,0.40
2022-12-14T13:50:18.588Z,0.40
2022-12-14T13:52:44.189Z,0.40
2022-12-14T13:55:30.589Z,0.40
2022-12-14T13:58:20.619Z,0.40
2022-12-14T14:00:52.729Z,0.40
2022-12-14T14:03:34.958Z,0.50
2022-12-14T14:06:30.870Z,0.50
2022-12-14T14:09:02.914Z,0.50
2022-12-14T14:11:37.800Z,0.50
2022-12-14T14:14:22.908Z,0.60
2022-12-14T14:17:01.684Z,0.60
2022-12-14T14:19:28.481Z,0.60
2022-12-14T14:22:26.545Z,0.50
2022-12-14T14:25:26.282Z,0.50
2022-12-14T14:27:52.931Z,0.50
2022-12-14T14:30:32.813Z,0.50
2022-12-14T14:33:36.011Z,0.50
2022-12-14T14:35:49.855Z,0.50
2022-12-14T14:38:28.064Z,0.50
2022-12-14T14:41:19.081Z,0.40
2022-12-14T14:44:03.266Z,0.40
2022-12-14T14:46:43.870Z,0.50
2022-12-14T14:49:25.783Z,0.40
2022-12-14T14:51:52.545Z,0.40
2022-12-14T14:57:33.088Z,0.30
2022-12-14T15:00:01.330Z,0.20
2022-12-14T15:02:32.842Z,0.20
2022-12-14T15:05:17.592Z,0.20
2022-12-14T15:07:46.343Z,0.10
2022-12-14T15:10:22.813Z,0.10
2022-12-14T15:12:52.335Z,0.10
2022-12-14T15:15:21.272Z,0.00
2022-12-14T15:17:48.000Z,0.00
2022-12-14T15:20:22.996Z,0.00
2022-12-14T15:22:49.679Z,-0.10
2022-12-14T15:25:27.336Z,-0.10
2022-12-14T15:27:54.405Z,-0.20
2022-12-14T15:30:23.184Z,-0.20
2022-12-14T15:33:08.619Z,-0.30
2022-12-14T15:35:42.674Z,-0.30
2022-12-14T15:38:18.116Z,-0.30
2022-12-14T15:40:58.650Z,-0.40
2022-12-14T15:43:26.018Z,-0.40
2022-12-14T15:45:55.203Z,-0.40
2022-12-14T15:48:25.809Z,-0.40
2022-12-14T15:50:56.163Z,-0.50
2022-12-14T15:53:29.084Z,-0.50
2022-12-14T15:56:01.856Z,-0.50
2022-12-14T15:58:35.099Z,-0.50
2022-12-14T16:01:13.095Z,-0.60
2022-12-14T16:03:42.410Z,-0.60
2022-12-14T16:06:12.224Z,-0.60
2022-12-14T16:08:42.148Z,-0.60
2022-12-14T16:11:44.531Z,-0.60
2022-12-14T16:14:35.800Z,-0.70
2022-12-14T16:17:02.485Z,-0.80
2022-12-14T16:19:45.021Z,-0.80
2022-12-14T16:22:22.342Z,-0.80
2022-12-14T16:25:01.437Z,-0.80
2022-12-14T16:27:28.941Z,-0.80
2022-12-14T16:30:31.161Z,-0.80
2022-12-14T16:33:17.889Z,-0.90
2022-12-14T16:35:45.745Z,-0.90
2022-12-14T16:38:14.129Z,-0.90
2022-12-14T16:40:47.725Z,-0.90
2022-12-14T16:43:25.200Z,-0.90
2022-12-14T16:45:54.980Z,-0.90
2022-12-14T16:48:22.093Z,-0.90
2022-12-14T16:50:56.991Z,-0.90
2022-12-14T16:53:29.397Z,-1.00
2022-12-14T16:56:07.055Z,-1.00
2022-12-14T16:58:34.429Z,-0.90
2022-12-14T17:01:02.558Z,-0.90
2022-12-14T17:03:32.570Z,-0.90
2022-12-14T17:06:01.439Z,-0.90
2022-12-14T17:08:28.289Z,-1.00
2022-12-14T17:10:55.076Z,-1.00
2022-12-14T17:13:21.753Z,-1.00
2022-12-14T17:16:01.740Z,-1.00
2022-12-14T17:18:32.039Z,-1.10
2022-12-14T17:20:58.696Z,-1.20
2022-12-14T17:23:25.367Z,-1.20
2022-12-14T17:25:52.025Z,-1.20
2022-12-14T17:28:25.162Z,-1.20
2022-12-14T17:30:57.183Z,-1.20
2022-12-14T17:33:27.798Z,-1.30
2022-12-14T17:35:55.169Z,-1.30
2022-12-14T17:38:22.139Z,-1.20
2022-12-14T17:40:49.332Z,-1.20
2022-12-14T17:43:18.601Z,-1.20
2022-12-14T17:45:45.343Z,-1.20
2022-12-14T17:48:13.097Z,-1.30
2022-12-14T17:50:41.437Z,-1.30
2022-12-14T17:53:15.474Z,-1.30
2022-12-14T17:55:42.178Z,-1.40
2022-12-14T17:58:10.311Z,-1.40
2022-12-14T18:00:55.480Z,-1.40
2022-12-14T18:03:22.274Z,-1.50
2022-12-14T18:05:49.433Z,-1.50
2022-12-14T18:08:17.172Z,-1.50
2022-12-14T18:10:44.057Z,-1.50
2022-12-14T18:13:11.876Z,-1.50
2022-12-14T18:15:40.526Z,-1.50
2022-12-14T18:18:07.380Z,-1.60
2022-12-14T18:20:34.218Z,-1.50
2022-12-14T18:23:00.898Z,-1.50
2022-12-14T18:25:40.205Z,-1.50
2022-12-14T18:28:07.242Z,-1.50
2022-12-14T18:30:40.523Z,-1.50
2022-12-14T18:33:14.433Z,-1.50
2022-12-14T18:35:41.519Z,-1.60
2022-12-14T18:38:08.301Z,-1.70
2022-12-14T18:40:35.043Z,-1.70
2022-12-14T18:43:01.778Z,-1.70
2022-12-14T18:45:33.919Z,-1.80
2022-12-14T18:48:01.076Z,-1.80
2022-12-14T18:50:28.057Z,-1.80
2022-12-14T18:52:57.759Z,-1.80
2022-12-14T18:55:29.448Z,-1.90
2022-12-14T18:57:57.304Z,-1.90
2022-12-14T19:00:25.872Z,-2.00
2022-12-14T19:02:52.887Z,-2.00
2022-12-14T19:05:23.215Z,-2.10
2022-12-14T19:07:52.493Z,-2.10
2022-12-14T19:10:21.151Z,-2.10
2022-12-14T19:12:48.179Z,-2.10
2022-12-14T19:15:15.344Z,-2.10
2022-12-14T19:17:42.231Z,-2.10
2022-12-14T19:20:10.421Z,-2.10
2022-12-14T19:22:37.356Z,-2.10
2022-12-14T19:25:04.346Z,-2.10
2022-12-14T19:28:11.356Z,-2.10
2022-12-14T19:30:22.779Z,-2.20
2022-12-14T19:32:53.556Z,-2.20
2022-12-14T19:35:20.672Z,-2.20
2022-12-14T19:37:47.627Z,-2.20
2022-12-14T19:40:14.769Z,-2.30
2022-12-14T19:42:41.648Z,-2.40
2022-12-14T19:45:08.885Z,-2.40
2022-12-14T19:47:35.658Z,-2.40
2022-12-14T19:50:03.698Z,-2.40
2022-12-14T19:52:30.379Z,-2.40
2022-12-14T19:54:57.031Z,-2.30
2022-12-14T19:57:23.695Z,-2.30
2022-12-14T19:59:50.336Z,-2.20
2022-12-14T20:02:17.187Z,-2.20
2022-12-14T20:04:43.952Z,-2.20
2022-12-14T20:07:10.668Z,-2.20
2022-12-14T20:09:37.488Z,-2.20
2022-12-14T20:12:04.435Z,-2.20
2022-12-14T20:14:31.088Z,-2.30
2022-12-14T20:16:57.767Z,-2.30
2022-12-14T20:19:24.586Z,-2.30
2022-12-14T20:21:51.323Z,-2.30
2022-12-14T20:24:17.968Z,-2.30
2022-12-14T20:26:44.649Z,-2.20
2022-12-14T20:29:11.391Z,-2.30
2022-12-14T20:31:38.300Z,-2.30
2022-12-14T20:34:05.360Z,-2.30
2022-12-14T20:36:32.021Z,-2.30
2022-12-14T20:39:01.275Z,-2.40
2022-12-14T20:41:42.733Z,-2.40
2022-12-14T20:44:11.888Z,-2.40
2022-12-14T20:46:40.609Z,-2.40
2022-12-14T20:49:09.799Z,-2.40
2022-12-14T20:51:37.171Z,-2.30
2022-12-14T20:54:04.769Z,-2.20
2022-12-14T20:56:31.459Z,-2.10
2022-12-14T20:58:58.144Z,-2.00
2022-12-14T21:01:24.960Z,-2.00
2022-12-14T21:03:51.934Z,-2.00
2022-12-14T21:06:20.826Z,-2.00
2022-12-14T21:09:04.953Z,-1.90
2022-12-14T21:11:52.156Z,-1.90
2022-12-14T21:14:19.533Z,-1.80
2022-12-14T21:16:46.373Z,-1.90
2022-12-14T21:19:13.160Z,-1.80
2022-12-14T21:21:40.903Z,-1.80
2022-12-14T21:24:08.914Z,-1.90
2022-12-14T21:26:36.704Z,-1.90
2022-12-14T21:29:03.682Z,-2.00
2022-12-14T21:31:30.387Z,-2.10
2022-12-14T21:33:57.050Z,-2.00
2022-12-14T21:36:23.715Z,-2.10
2022-12-14T21:38:50.444Z,-2.10
2022-12-14T21:41:35.764Z,-2.10
2022-12-14T21:44:02.451Z,-2.10
2022-12-14T21:46:29.714Z,-2.10
2022-12-14T21:48:56.577Z,-2.10
2022-12-14T21:51:23.214Z,-2.10
2022-12-14T21:54:00.533Z,-2.00
2022-12-14T21:56:50.191Z,-2.00
2022-12-14T21:59:18.325Z,-2.00
2022-12-14T22:01:45.082Z,-2.00
2022-12-14T22:04:11.883Z,-2.00
2022-12-14T22:06:38.584Z,-2.00
2022-12-14T22:09:05.505Z,-1.90
2022-12-14T22:11:32.412Z,-1.90
2022-12-14T22:14:02.046Z,-1.80
2022-12-14T22:16:33.259Z,-1.80
2022-12-14T22:19:00.325Z,-1.80
2022-12-14T22:21:27.094Z,-1.80
2022-12-14T22:23:56.816Z,-1.70
2022-12-14T22:26:23.819Z,-1.70
2022-12-14T22:28:53.608Z,-1.70
2022-12-14T22:31:20.534Z,-1.70
2022-12-14T22:33:49.804Z,-1.80
2022-12-14T22:36:16.575Z,-1.90
2022-12-14T22:38:43.706Z,-2.00
2022-12-14T22:41:11.547Z,-2.00
2022-12-14T22:43:38.820Z,-2.00
2022-12-14T22:46:05.856Z,-2.00
2022-12-14T22:48:33.346Z,-2.10
2022-12-14T22:51:00.841Z,-2.10
2022-12-14T22:53:28.440Z,-2.10
2022-12-14T22:56:02.047Z,-2.10
2022-12-14T22:58:28.712Z,-2.10
2022-12-14T23:00:55.416Z,-2.10
2022-12-14T23:03:22.766Z,-2.20
2022-12-14T23:05:49.486Z,-2.20
2022-12-14T23:08:16.231Z,-2.20
2022-12-14T23:11:01.206Z,-2.20
2022-12-14T23:13:46.256Z,-2.30
2022-12-14T23:16:31.343Z,-2.30
2022-12-14T23:19:16.495Z,-2.30
2022-12-14T23:22:01.712Z,-2.30
2022-12-14T23:24:46.918Z,-2.40
2022-12-14T23:27:32.128Z,-2.50
2022-12-14T23:30:17.203Z,-2.50
2022-12-14T23:33:02.308Z,-2.60
2022-12-14T23:35:47.286Z,-2.60
2022-12-14T23:38:32.525Z,-2.60
2022-12-14T23:41:19.160Z,-2.60
2022-12-14T23:44:04.214Z,-2.60
2022-12-14T23:46:49.418Z,-2.70
2022-12-14T23:49:34.548Z,-2.70
2022-12-14T23:52:19.798Z,-2.80
2022-12-14T23:55:04.813Z,-2.90
2022-12-14T23:57:50.132Z,-3.00
